Big Bear Station Historical Data
Daily Summary for March 8, 2019 Units:  Metric    English   Both
Next Day »
Daily Weekly Monthly Yearly Custom
  High: Low: Average:
Temperature: 1.8 °C -6.3 °C -2.8 °C
Dew Point: -2.2 °C -7.1 °C -4.3 °C
Humidity: 95% 75% 90%
Wind Speed: 12.6km/h 0km/h 2.6km/h
Wind Gust: -1607.7km/h - -
Wind- - SW
Pressure: 790.3 hPa 787.6 hPa -
Precipitation: 0 mm    
Historical Graphs
 
 
Tabular Data for March 8, 2019
Time Temperature Dew Point Pressure Wind Wind Speed Wind Gust Humidity Rainfall Rate (Hourly)
00:14 -3 °C -3.8 °C 788.3 hPa WSW 4.3 km/h -1607.7 km/h 94% 0 mm
00:29 -3.1 °C -3.9 °C 788.6 hPa SW 3.5 km/h -1607.7 km/h 94% 0 mm
00:45 -3.3 °C -3.9 °C 788.6 hPa SSW 6 km/h -1607.7 km/h 95% 0 mm
01:00 -3.5 °C -4.3 °C 788.3 hPa Calm   -1607.7 km/h 94% 0 mm
01:15 -3.5 °C -4.3 °C 788.3 hPa Calm   -1607.7 km/h 94% 0 mm
01:30 -3.5 °C -4.3 °C 788.3 hPa Calm   -1607.7 km/h 94% 0 mm
01:45 -3.5 °C -4.3 °C 788.3 hPa Calm   -1607.7 km/h 94% 0 mm
02:01 -3.6 °C -4.4 °C 788.3 hPa Calm   -1607.7 km/h 94% 0 mm
02:16 -3.6 °C -4.4 °C 787.9 hPa Calm   -1607.7 km/h 94% 0 mm
02:31 -3.5 °C -4.2 °C 787.9 hPa Calm   -1607.7 km/h 95% 0 mm
02:46 -3.5 °C -4.2 °C 787.9 hPa Calm   -1607.7 km/h 95% 0 mm
03:01 -3.6 °C -4.3 °C 787.9 hPa Calm   -1607.7 km/h 95% 0 mm
03:17 -3.6 °C -4.4 °C 787.6 hPa Calm   -1607.7 km/h 94% 0 mm
03:32 -3.5 °C -4.3 °C 787.9 hPa SSE 1.8 km/h -1607.7 km/h 94% 0 mm
03:47 -3.6 °C -4.4 °C 787.6 hPa Calm   -1607.7 km/h 94% 0 mm
04:02 -3.7 °C -4.6 °C 787.6 hPa South 5.1 km/h -1607.7 km/h 94% 0 mm
04:18 -3.8 °C -4.6 °C 787.6 hPa WSW 1.8 km/h -1607.7 km/h 94% 0 mm
04:33 -4.1 °C -5.1 °C 787.6 hPa Calm   -1607.7 km/h 93% 0 mm
04:48 -4.3 °C -5.4 °C 787.9 hPa NNW 4.3 km/h -1607.7 km/h 92% 0 mm
05:03 -4.4 °C -5.6 °C 788.3 hPa ESE 2.7 km/h -1607.7 km/h 91% 0 mm
05:19 -4.5 °C -5.6 °C 788.3 hPa Calm   -1607.7 km/h 92% 0 mm
05:34 -4.5 °C -5.4 °C 788.3 hPa NW 3.5 km/h -1607.7 km/h 93% 0 mm
05:49 -4.5 °C -5.3 °C 788.3 hPa WNW 6.8 km/h -1607.7 km/h 94% 0 mm
06:04 -4.5 °C -5.3 °C 788.3 hPa Calm   -1607.7 km/h 94% 0 mm
06:19 -4.5 °C -5.2 °C 788.3 hPa WSW 2.7 km/h -1607.7 km/h 95% 0 mm
06:35 -4.4 °C -5.2 °C 788.3 hPa SE 2.7 km/h -1607.7 km/h 94% 0 mm
06:50 -4.1 °C -4.9 °C 788.3 hPa Calm   -1607.7 km/h 94% 0 mm
07:05 -3.9 °C -5.3 °C 788.3 hPa WNW 5.1 km/h -1607.7 km/h 90% 0 mm
07:20 -3.5 °C -4.9 °C 788.3 hPa Calm   -1607.7 km/h 90% 0 mm
07:36 -3.4 °C -4.8 °C 788.3 hPa West 3.5 km/h -1607.7 km/h 90% 0 mm
07:51 -3.5 °C -5.1 °C 788.3 hPa West 1.8 km/h -1607.7 km/h 89% 0 mm
08:07 -3 °C -4.8 °C 788.6 hPa WNW 3.5 km/h -1607.7 km/h 87% 0 mm
08:22 -2.7 °C -4.4 °C 788.9 hPa ESE 2.7 km/h -1607.7 km/h 88% 0 mm
08:37 -2.2 °C -4.2 °C 788.9 hPa SSW 3.5 km/h -1607.7 km/h 86% 0 mm
08:53 -1.5 °C -3.7 °C 788.9 hPa NW 2.7 km/h -1607.7 km/h 85% 0 mm
09:08 -1.6 °C -3.7 °C 788.9 hPa WSW 10.1 km/h -1607.7 km/h 86% 0 mm
09:24 -1.3 °C -3.6 °C 788.9 hPa South 5.1 km/h -1607.7 km/h 84% 0 mm
09:39 -0.8 °C -3 °C 788.6 hPa Calm   -1607.7 km/h 85% 0 mm
09:54 -0.5 °C -3.1 °C 788.9 hPa NW 9.3 km/h -1607.7 km/h 83% 0 mm
10:09 -1.4 °C -3.6 °C 788.9 hPa East 9.3 km/h -1607.7 km/h 85% 0 mm
10:25 -1.2 °C -3.6 °C 788.9 hPa NNW 12.6 km/h -1607.7 km/h 84% 0 mm
10:40 -1 °C -3.1 °C 788.9 hPa West 6 km/h -1607.7 km/h 86% 0 mm
10:55 -1.5 °C -3.2 °C 788.9 hPa Calm   -1607.7 km/h 88% 0 mm
11:11 -1.2 °C -3.6 °C 789.3 hPa NE 3.5 km/h -1607.7 km/h 84% 0 mm
11:26 0.2 °C -2.3 °C 789.3 hPa NNE 3.5 km/h -1607.7 km/h 83% 0 mm
11:42 0.5 °C -2.7 °C 789.3 hPa NW 3.5 km/h -1607.7 km/h 79% 0 mm
11:57 1.8 °C -2.2 °C 789.3 hPa NW 4.3 km/h -1607.7 km/h 75% 0 mm
12:13 0.2 °C -2.7 °C 789.3 hPa South 6.8 km/h -1607.7 km/h 81% 0 mm
12:28 -0.6 °C -3.8 °C 788.9 hPa East 4.3 km/h -1607.7 km/h 79% 0 mm
12:44 0.9 °C -2.7 °C 788.9 hPa NNE 7.6 km/h -1607.7 km/h 77% 0 mm
13:00 1 °C -2.8 °C 788.9 hPa West 6 km/h -1607.7 km/h 76% 0 mm
13:15 0.9 °C -2.5 °C 788.9 hPa NW 1.8 km/h -1607.7 km/h 78% 0 mm
13:31 0.4 °C -2.5 °C 788.9 hPa Calm   -1607.7 km/h 81% 0 mm
13:46 -0.5 °C -2.9 °C 788.9 hPa NNW 4.3 km/h -1607.7 km/h 84% 0 mm
14:01 0.2 °C -2.8 °C 788.9 hPa South 6.8 km/h -1607.7 km/h 80% 0 mm
14:16 0.1 °C -2.4 °C 788.9 hPa WNW 3.5 km/h -1607.7 km/h 83% 0 mm
14:31 -0.4 °C -2.6 °C 788.9 hPa West 3.5 km/h -1607.7 km/h 85% 0 mm
14:47 -0.1 °C -2.7 °C 788.9 hPa SSE 4.3 km/h -1607.7 km/h 83% 0 mm
15:02 -0.1 °C -2.5 °C 788.9 hPa WNW 5.1 km/h -1607.7 km/h 84% 0 mm
15:17 -0.7 °C -3.1 °C 788.9 hPa South 6.8 km/h -1607.7 km/h 84% 0 mm
15:32 -1.1 °C -3 °C 789.3 hPa SSE 5.1 km/h -1607.7 km/h 87% 0 mm
15:47 -1.3 °C -3 °C 788.9 hPa SW 3.5 km/h -1607.7 km/h 88% 0 mm
16:03 -2.2 °C -3.7 °C 788.9 hPa WNW 6.8 km/h -1607.7 km/h 90% 0 mm
16:18 -2.1 °C -3.7 °C 789.3 hPa Calm   -1607.7 km/h 89% 0 mm
16:33 -2.5 °C -3.9 °C 789.3 hPa West 4.3 km/h -1607.7 km/h 90% 0 mm
16:48 -2.7 °C -3.7 °C 788.9 hPa WSW 6.8 km/h -1607.7 km/h 93% 0 mm
17:03 -2.9 °C -3.7 °C 788.9 hPa SSW 6 km/h -1607.7 km/h 94% 0 mm
17:19 -3 °C -3.9 °C 788.9 hPa Calm   -1607.7 km/h 93% 0 mm
17:34 -3.1 °C -3.9 °C 788.9 hPa Calm   -1607.7 km/h 94% 0 mm
17:49 -3.3 °C -4.2 °C 788.9 hPa SSW 2.7 km/h -1607.7 km/h 93% 0 mm
18:05 -3.4 °C -4.2 °C 788.9 hPa NW 2.7 km/h -1607.7 km/h 94% 0 mm
18:20 -3.4 °C -4.2 °C 789.3 hPa SSE 2.7 km/h -1607.7 km/h 94% 0 mm
18:35 -3.4 °C -4.3 °C 788.9 hPa Calm   -1607.7 km/h 93% 0 mm
18:50 -3.5 °C -4.3 °C 788.9 hPa Calm   -1607.7 km/h 94% 0 mm
19:06 -3.5 °C -4.3 °C 789.6 hPa Calm   -1607.7 km/h 94% 0 mm
19:21 -3.6 °C -4.4 °C 789.6 hPa WNW 3.5 km/h -1607.7 km/h 94% 0 mm
19:36 -3.5 °C -4.3 °C 789.6 hPa North 4.3 km/h -1607.7 km/h 94% 0 mm
19:52 -3.5 °C -4.3 °C 789.6 hPa Calm   -1607.7 km/h 94% 0 mm
20:07 -3.5 °C -4.3 °C 790 hPa Calm   -1607.7 km/h 94% 0 mm
20:22 -3.5 °C -4.3 °C 789.6 hPa Calm   -1607.7 km/h 94% 0 mm
20:37 -3.6 °C -4.6 °C 789.6 hPa Calm   -1607.7 km/h 93% 0 mm
20:53 -3.8 °C -4.9 °C 789.6 hPa Calm   -1607.7 km/h 92% 0 mm
21:08 -4 °C -5.3 °C 789.6 hPa Calm   -1607.7 km/h 91% 0 mm
21:23 -4.3 °C -5.4 °C 789.6 hPa Calm   -1607.7 km/h 92% 0 mm
21:38 -4.5 °C -5.4 °C 789.6 hPa Calm   -1607.7 km/h 93% 0 mm
21:53 -4.8 °C -5.7 °C 790.3 hPa Calm   -1607.7 km/h 93% 0 mm
22:09 -5.1 °C -6.2 °C 790 hPa Calm   -1607.7 km/h 92% 0 mm
22:24 -5.5 °C -6.6 °C 789.6 hPa Calm   -1607.7 km/h 92% 0 mm
22:39 -5.7 °C -6.7 °C 789.6 hPa Calm   -1607.7 km/h 93% 0 mm
22:55 -5.9 °C -6.7 °C 789.6 hPa Calm   -1607.7 km/h 94% 0 mm
23:10 -6.2 °C -7.1 °C 789.6 hPa Calm   -1607.7 km/h 94% 0 mm
23:26 -6.3 °C -7.1 °C 790 hPa South 3.5 km/h -1607.7 km/h 94% 0 mm
23:41 -5.8 °C -6.6 °C 790 hPa Calm   -1607.7 km/h 94% 0 mm
23:56 -5.7 °C -6.7 °C 790 hPa Calm   -1607.7 km/h 93% 0 mm
Big Bear CA Weather